Time;durP1;ratioP1;P1;durP2;ratioP2;P2;SDS_P1;SDS_P2;PMS_P1;PMS_P2;Temp;Humidity;BMP_temperature;BMP_pressure;BME280_temperature;BME280_humidity;BME280_pressure;Samples;Min_cycle;Max_cycle;Signal;HPM_P1;HPM_P2
2023/10/30 00:00:34;;;;;;;55.77;2.07;;;;;;;;;;5050715;28;20574;-73
2023/10/30 00:03:01;;;;;;;56.40;2.60;;;;;;;;;;5050568;28;20444;-73
2023/10/30 00:05:28;;;;;;;56.07;2.20;;;;;;;;;;5050390;28;20936;-73
2023/10/30 00:07:56;;;;;;;56.40;2.67;;;;;;;;;;5050867;28;20952;-73
2023/10/30 00:10:23;;;;;;;56.00;2.50;;;;;;;;;;5050635;28;20481;-73
2023/10/30 00:12:50;;;;;;;55.87;2.23;;;;;;;;;;5050951;28;20448;-73
2023/10/30 00:15:17;;;;;;;58.97;2.57;;;;;;;;;;5050530;28;20446;-73
2023/10/30 00:17:45;;;;;;;56.07;2.23;;;;;;;;;;5051103;28;20441;-72
2023/10/30 00:20:12;;;;;;;56.00;2.30;;;;;;;;;;5052900;28;20470;-73
2023/10/30 00:22:39;;;;;;;55.90;2.30;;;;;;;;;;5054359;28;20448;-73
2023/10/30 00:25:07;;;;;;;56.00;2.20;;;;;;;;;;5054126;28;20437;-72
2023/10/30 00:27:34;;;;;;;55.87;2.20;;;;;;;;;;5054106;28;20449;-72
2023/10/30 00:30:02;;;;;;;56.60;2.60;;;;;;;;;;5053676;28;20555;-73
2023/10/30 00:32:30;;;;;;;56.00;2.00;;;;;;;;;;5054406;28;20472;-72
2023/10/30 00:34:59;;;;;;;55.67;2.03;;;;;;;;;;5053777;28;20537;-73
2023/10/30 00:37:26;;;;;;;55.63;1.90;;;;;;;;;;5053876;28;20459;-73
2023/10/30 00:39:53;;;;;;;55.97;2.17;;;;;;;;;;5053823;28;20478;-73
2023/10/30 00:42:25;;;;;;;55.90;2.20;;;;;;;;;;5053599;28;20481;-73
2023/10/30 00:44:52;;;;;;;55.93;2.03;;;;;;;;;;5045905;28;20498;-71
2023/10/30 00:47:19;;;;;;;55.87;2.40;;;;;;;;;;5053997;28;20440;-72
2023/10/30 00:49:46;;;;;;;56.10;2.40;;;;;;;;;;5053992;28;20469;-72
2023/10/30 00:52:15;;;;;;;56.00;2.30;;;;;;;;;;5053828;28;20454;-73
2023/10/30 00:54:42;;;;;;;56.30;2.03;;;;;;;;;;5053275;28;20490;-73
2023/10/30 00:57:09;;;;;;;56.00;2.27;;;;;;;;;;5053580;28;20938;-72
2023/10/30 00:59:36;;;;;;;55.80;2.07;;;;;;;;;;5053665;28;20506;-73
2023/10/30 01:02:03;;;;;;;55.77;2.10;;;;;;;;;;5053582;28;20483;-73
2023/10/30 01:04:30;;;;;;;56.07;2.13;;;;;;;;;;5053511;28;20448;-73
2023/10/30 01:06:58;;;;;;;56.17;2.17;;;;;;;;;;5054031;28;20444;-73
2023/10/30 01:09:26;;;;;;;56.07;2.30;;;;;;;;;;5053401;28;20483;-71
2023/10/30 01:11:53;;;;;;;56.10;2.30;;;;;;;;;;5045536;28;20455;-72
2023/10/30 01:14:20;;;;;;;55.33;2.10;;;;;;;;;;5053611;28;20848;-73
2023/10/30 01:16:49;;;;;;;55.47;1.97;;;;;;;;;;5053585;28;20444;-72
2023/10/30 01:19:16;;;;;;;55.77;2.20;;;;;;;;;;5053647;28;20937;-72
2023/10/30 01:21:43;;;;;;;55.60;2.00;;;;;;;;;;5053796;28;20456;-73
2023/10/30 01:24:11;;;;;;;56.10;2.00;;;;;;;;;;5053572;28;20823;-73
2023/10/30 01:26:39;;;;;;;55.47;2.20;;;;;;;;;;5053786;28;20448;-73
2023/10/30 01:29:07;;;;;;;55.77;2.10;;;;;;;;;;5053527;28;20450;-74
2023/10/30 01:31:34;;;;;;;56.20;2.30;;;;;;;;;;5053271;28;20458;-73
2023/10/30 01:34:01;;;;;;;55.90;2.10;;;;;;;;;;5053089;28;20489;-73
2023/10/30 01:36:29;;;;;;;55.27;2.00;;;;;;;;;;5052896;28;20457;-73
2023/10/30 01:38:56;;;;;;;55.90;1.80;;;;;;;;;;5052882;28;20486;-73
2023/10/30 01:41:24;;;;;;;55.60;2.00;;;;;;;;;;5052861;28;20812;-73
2023/10/30 01:43:52;;;;;;;55.90;2.20;;;;;;;;;;5052999;28;20502;-73
2023/10/30 01:46:19;;;;;;;55.47;2.20;;;;;;;;;;5052750;28;20454;-72
2023/10/30 01:48:47;;;;;;;55.80;2.10;;;;;;;;;;5052667;28;21188;-74
2023/10/30 01:51:14;;;;;;;55.37;2.30;;;;;;;;;;5052279;28;20497;-72
2023/10/30 01:53:41;;;;;;;56.10;2.00;;;;;;;;;;5052480;28;20483;-73
2023/10/30 01:56:08;;;;;;;56.00;2.00;;;;;;;;;;5052294;28;20454;-74
2023/10/30 01:58:36;;;;;;;55.47;2.00;;;;;;;;;;5052682;28;20452;-73
2023/10/30 02:01:05;;;;;;;55.80;1.77;;;;;;;;;;5052457;28;21012;-73
2023/10/30 02:03:32;;;;;;;55.90;2.00;;;;;;;;;;5051814;28;20792;-73
2023/10/30 02:05:59;;;;;;;55.77;2.00;;;;;;;;;;5052623;28;20453;-73
2023/10/30 02:08:26;;;;;;;55.90;2.57;;;;;;;;;;5052695;28;20458;-73
2023/10/30 02:10:53;;;;;;;56.10;2.37;;;;;;;;;;5052246;28;20468;-73
2023/10/30 02:13:20;;;;;;;55.90;1.90;;;;;;;;;;5052287;28;20818;-73
2023/10/30 02:15:47;;;;;;;55.80;2.03;;;;;;;;;;5051863;28;20476;-73
2023/10/30 02:18:16;;;;;;;55.87;1.93;;;;;;;;;;5052315;28;20455;-72
2023/10/30 02:20:43;;;;;;;55.23;2.00;;;;;;;;;;5052002;28;20473;-73
2023/10/30 02:23:10;;;;;;;55.00;2.20;;;;;;;;;;5052256;28;20452;-73
2023/10/30 02:25:38;;;;;;;55.37;2.10;;;;;;;;;;5051996;28;20456;-72
2023/10/30 02:28:06;;;;;;;55.77;1.90;;;;;;;;;;5051974;28;20445;-73
2023/10/30 02:30:33;;;;;;;56.30;2.53;;;;;;;;;;5051524;28;20590;-73
2023/10/30 02:33:00;;;;;;;55.27;2.10;;;;;;;;;;5051927;28;20456;-72
2023/10/30 02:35:27;;;;;;;55.97;1.90;;;;;;;;;;5051651;28;20488;-73
2023/10/30 02:37:54;;;;;;;56.30;2.50;;;;;;;;;;5043528;28;20450;-73
2023/10/30 02:40:22;;;;;;;55.80;2.17;;;;;;;;;;5051770;28;20820;-73
2023/10/30 02:42:50;;;;;;;55.57;2.20;;;;;;;;;;5051227;28;20453;-72
2023/10/30 02:45:17;;;;;;;55.63;2.43;;;;;;;;;;5051964;28;20444;-73
2023/10/30 02:47:44;;;;;;;55.97;2.50;;;;;;;;;;5051476;28;20450;-73
2023/10/30 02:50:12;;;;;;;55.73;2.30;;;;;;;;;;5051824;28;20468;-73
2023/10/30 02:52:39;;;;;;;56.17;2.27;;;;;;;;;;5051567;28;20561;-72
2023/10/30 02:55:07;;;;;;;56.17;2.43;;;;;;;;;;5051169;28;20487;-73
2023/10/30 02:57:34;;;;;;;55.97;2.20;;;;;;;;;;5051307;28;20459;-72
2023/10/30 03:00:03;;;;;;;57.33;2.70;;;;;;;;;;5051668;28;20466;-72
2023/10/30 03:02:30;;;;;;;57.00;2.30;;;;;;;;;;5051323;28;20448;-73
2023/10/30 03:04:57;;;;;;;56.20;2.20;;;;;;;;;;5051406;28;20449;-72
2023/10/30 03:07:24;;;;;;;55.93;2.30;;;;;;;;;;5051469;28;20448;-72
2023/10/30 03:09:51;;;;;;;55.47;2.20;;;;;;;;;;5050948;28;20476;-73
2023/10/30 03:12:18;;;;;;;56.30;2.37;;;;;;;;;;5051694;28;20469;-72
2023/10/30 03:14:45;;;;;;;55.83;2.30;;;;;;;;;;5051140;28;20494;-72
2023/10/30 03:17:14;;;;;;;56.80;2.27;;;;;;;;;;5051354;28;20450;-72
2023/10/30 03:19:41;;;;;;;56.07;2.30;;;;;;;;;;5051189;28;20476;-73
2023/10/30 03:22:08;;;;;;;56.07;2.30;;;;;;;;;;5051184;28;20455;-72
2023/10/30 03:24:35;;;;;;;55.20;2.20;;;;;;;;;;5051264;28;20498;-70
2023/10/30 03:27:02;;;;;;;55.60;2.27;;;;;;;;;;5051766;28;20450;-72
2023/10/30 03:29:29;;;;;;;55.23;2.03;;;;;;;;;;5051401;28;21005;-71
2023/10/30 03:31:56;;;;;;;55.57;2.20;;;;;;;;;;5051639;28;20451;-72
2023/10/30 03:34:25;;;;;;;57.27;2.20;;;;;;;;;;5051194;28;20509;-72
2023/10/30 03:36:52;;;;;;;56.20;2.50;;;;;;;;;;5051476;28;20455;-72
2023/10/30 03:39:19;;;;;;;55.87;2.10;;;;;;;;;;5051159;28;20543;-72
2023/10/30 03:41:46;;;;;;;55.77;2.30;;;;;;;;;;5051024;28;21069;-72
2023/10/30 03:44:13;;;;;;;55.50;2.43;;;;;;;;;;5051615;28;20434;-73
2023/10/30 03:46:40;;;;;;;55.87;2.27;;;;;;;;;;5051128;28;20444;-72
2023/10/30 03:49:08;;;;;;;55.97;2.27;;;;;;;;;;5050994;28;20442;-72
2023/10/30 03:51:36;;;;;;;56.10;2.20;;;;;;;;;;5051089;28;20447;-72
2023/10/30 03:54:03;;;;;;;56.07;2.30;;;;;;;;;;5053498;28;20476;-73
2023/10/30 03:56:30;;;;;;;55.73;2.20;;;;;;;;;;5054769;28;20811;-73
2023/10/30 03:58:57;;;;;;;56.70;2.60;;;;;;;;;;5055037;28;20470;-72
2023/10/30 04:01:24;;;;;;;56.53;2.40;;;;;;;;;;5054903;28;20484;-71
2023/10/30 04:03:51;;;;;;;56.10;2.30;;;;;;;;;;5055446;28;20451;-72
2023/10/30 04:06:17;;;;;;;55.87;2.40;;;;;;;;;;5054569;28;20444;-72
2023/10/30 04:08:46;;;;;;;55.90;2.20;;;;;;;;;;5054820;28;20567;-72
2023/10/30 04:11:14;;;;;;;56.60;2.37;;;;;;;;;;5054339;28;20477;-73
2023/10/30 04:13:41;;;;;;;55.97;2.40;;;;;;;;;;5054632;28;20460;-72
2023/10/30 04:16:11;;;;;;;56.00;2.10;;;;;;;;;;5054552;28;20495;-72
2023/10/30 04:18:38;;;;;;;56.10;2.30;;;;;;;;;;5054368;28;20448;-72
2023/10/30 04:21:05;;;;;;;55.33;2.10;;;;;;;;;;5054275;28;20471;-72
2023/10/30 04:23:32;;;;;;;55.63;2.37;;;;;;;;;;5054896;28;20444;-73
2023/10/30 04:26:01;;;;;;;56.00;2.13;;;;;;;;;;5054301;28;20440;-72
2023/10/30 04:28:28;;;;;;;55.47;2.30;;;;;;;;;;5054545;28;20444;-72
2023/10/30 04:30:55;;;;;;;56.00;2.00;;;;;;;;;;5054316;28;20476;-72
2023/10/30 04:33:22;;;;;;;55.17;2.17;;;;;;;;;;5054152;28;20451;-72
2023/10/30 04:35:49;;;;;;;55.83;2.27;;;;;;;;;;5054149;28;20491;-72
2023/10/30 04:38:16;;;;;;;55.57;2.20;;;;;;;;;;5054438;28;20452;-72
2023/10/30 04:40:43;;;;;;;56.10;2.33;;;;;;;;;;5053987;28;20472;-72
2023/10/30 04:43:11;;;;;;;55.67;2.30;;;;;;;;;;5054734;28;20856;-73
2023/10/30 04:45:39;;;;;;;55.47;2.20;;;;;;;;;;5053633;28;20441;-72
2023/10/30 04:48:06;;;;;;;55.57;2.10;;;;;;;;;;5053887;28;20454;-72
2023/10/30 04:50:33;;;;;;;56.03;2.30;;;;;;;;;;5054310;28;20880;-71
2023/10/30 04:53:00;;;;;;;56.20;2.20;;;;;;;;;;5054356;28;20448;-72
2023/10/30 04:55:27;;;;;;;56.10;2.30;;;;;;;;;;5053874;28;20492;-71
2023/10/30 04:57:54;;;;;;;55.77;2.30;;;;;;;;;;5054085;28;20889;-72
2023/10/30 05:00:23;;;;;;;56.10;2.60;;;;;;;;;;5053607;28;20475;-72
2023/10/30 05:02:50;;;;;;;55.87;2.27;;;;;;;;;;5053984;28;20455;-72
2023/10/30 05:05:17;;;;;;;56.33;2.23;;;;;;;;;;5053267;28;20449;-72
2023/10/30 05:07:44;;;;;;;55.87;2.30;;;;;;;;;;5053828;28;20458;-73
2023/10/30 05:10:12;;;;;;;56.37;2.43;;;;;;;;;;5053551;28;20499;-71
2023/10/30 05:12:39;;;;;;;55.47;2.30;;;;;;;;;;5053483;28;20545;-73
2023/10/30 05:15:08;;;;;;;55.07;2.27;;;;;;;;;;5053310;28;20482;-72
2023/10/30 05:17:37;;;;;;;55.53;2.10;;;;;;;;;;5053391;28;20451;-72
2023/10/30 05:20:04;;;;;;;55.93;2.40;;;;;;;;;;5053353;28;20497;-72
2023/10/30 05:22:32;;;;;;;56.10;2.10;;;;;;;;;;5053251;28;20444;-73
2023/10/30 05:24:59;;;;;;;56.30;2.20;;;;;;;;;;5053153;28;20437;-72
2023/10/30 05:27:27;;;;;;;56.00;2.33;;;;;;;;;;5053078;28;20446;-72
2023/10/30 05:29:54;;;;;;;55.87;2.30;;;;;;;;;;5053330;28;20466;-72
2023/10/30 05:32:22;;;;;;;55.97;2.43;;;;;;;;;;5053288;28;20453;-72
2023/10/30 05:34:50;;;;;;;56.13;1.97;;;;;;;;;;5053076;28;20567;-72
2023/10/30 05:37:18;;;;;;;55.83;2.20;;;;;;;;;;5053547;28;20575;-72
2023/10/30 05:39:45;;;;;;;55.57;2.10;;;;;;;;;;5052741;28;20818;-73
2023/10/30 05:42:12;;;;;;;56.00;2.23;;;;;;;;;;5053306;28;20520;-72
2023/10/30 05:44:39;;;;;;;55.87;2.20;;;;;;;;;;5053025;28;20460;-73
2023/10/30 05:47:06;;;;;;;56.07;2.30;;;;;;;;;;5053066;28;20472;-73
2023/10/30 05:49:33;;;;;;;56.27;2.47;;;;;;;;;;5053183;28;20473;-72
2023/10/30 05:52:02;;;;;;;56.13;2.30;;;;;;;;;;5052705;28;20454;-71
2023/10/30 05:54:29;;;;;;;55.97;2.27;;;;;;;;;;5052860;28;20450;-72
2023/10/30 05:56:56;;;;;;;55.70;2.33;;;;;;;;;;5053199;28;20543;-72
2023/10/30 05:59:23;;;;;;;55.93;2.17;;;;;;;;;;5053267;28;20476;-72
2023/10/30 06:01:50;;;;;;;56.13;2.40;;;;;;;;;;5052695;28;20467;-73
2023/10/30 06:04:17;;;;;;;56.33;2.43;;;;;;;;;;5052597;28;20584;-73
2023/10/30 06:06:44;;;;;;;55.73;2.10;;;;;;;;;;5052291;28;20445;-71
2023/10/30 06:09:13;;;;;;;56.17;2.47;;;;;;;;;;5052700;28;20451;-69
2023/10/30 06:11:40;;;;;;;56.13;2.40;;;;;;;;;;5052886;28;20444;-72
2023/10/30 06:14:07;;;;;;;55.77;2.33;;;;;;;;;;5052996;28;20937;-72
2023/10/30 06:16:34;;;;;;;56.53;2.60;;;;;;;;;;5051419;28;20484;-72
2023/10/30 06:19:02;;;;;;;56.00;2.00;;;;;;;;;;5052987;28;20456;-73
2023/10/30 06:21:29;;;;;;;55.87;2.10;;;;;;;;;;5052964;28;20460;-71
2023/10/30 06:23:56;;;;;;;56.00;2.40;;;;;;;;;;5052690;28;20448;-70
2023/10/30 06:26:25;;;;;;;57.63;2.50;;;;;;;;;;5052582;28;20966;-70
2023/10/30 06:28:52;;;;;;;56.00;2.60;;;;;;;;;;5052252;28;20450;-70
2023/10/30 06:31:20;;;;;;;56.40;2.60;;;;;;;;;;5052091;28;20474;-71
2023/10/30 06:33:47;;;;;;;56.40;2.50;;;;;;;;;;5052118;28;20895;-72
2023/10/30 06:36:14;;;;;;;56.50;2.50;;;;;;;;;;5051953;28;20992;-70
2023/10/30 06:38:42;;;;;;;56.20;2.50;;;;;;;;;;5052917;28;20963;-70
2023/10/30 06:41:09;;;;;;;57.10;2.40;;;;;;;;;;5052524;28;20590;-72
2023/10/30 06:43:38;;;;;;;55.93;2.50;;;;;;;;;;5052643;28;20452;-73
2023/10/30 06:46:06;;;;;;;55.77;2.60;;;;;;;;;;5052085;28;20445;-70
2023/10/30 06:48:33;;;;;;;55.77;2.50;;;;;;;;;;5052159;28;20472;-72
2023/10/30 06:51:01;;;;;;;55.77;2.10;;;;;;;;;;5051774;28;20490;-71
2023/10/30 06:53:28;;;;;;;56.27;2.30;;;;;;;;;;5052276;28;20445;-73
2023/10/30 06:55:55;;;;;;;56.50;2.50;;;;;;;;;;5051737;28;20488;-72
2023/10/30 06:58:22;;;;;;;55.87;2.30;;;;;;;;;;5052184;28;20452;-72
2023/10/30 07:00:51;;;;;;;56.43;2.20;;;;;;;;;;5052111;28;20520;-71
2023/10/30 07:03:18;;;;;;;56.50;2.90;;;;;;;;;;5052238;28;20448;-71
2023/10/30 07:05:45;;;;;;;56.80;2.37;;;;;;;;;;5051832;28;20444;-72
2023/10/30 07:08:13;;;;;;;56.07;2.23;;;;;;;;;;5052154;28;20837;-72
2023/10/30 07:10:40;;;;;;;56.07;2.30;;;;;;;;;;5051780;28;20465;-72
2023/10/30 07:13:07;;;;;;;56.10;2.30;;;;;;;;;;5052188;28;20445;-72
2023/10/30 07:15:34;;;;;;;56.07;2.30;;;;;;;;;;5051775;28;20486;-72
2023/10/30 07:18:03;;;;;;;55.87;2.30;;;;;;;;;;5051817;28;20454;-71
2023/10/30 07:20:30;;;;;;;55.97;2.60;;;;;;;;;;5051563;28;20472;-71
2023/10/30 07:22:57;;;;;;;56.10;2.30;;;;;;;;;;5051517;28;20451;-71
2023/10/30 07:25:24;;;;;;;55.67;2.27;;;;;;;;;;5051319;28;20441;-71
2023/10/30 07:27:51;;;;;;;56.20;2.40;;;;;;;;;;5051706;28;20537;-71
2023/10/30 07:30:18;;;;;;;56.17;2.17;;;;;;;;;;5055192;28;20835;-70
2023/10/30 07:32:48;;;;;;;56.57;2.50;;;;;;;;;;5055258;28;20545;-71
2023/10/30 07:35:16;;;;;;;56.30;2.30;;;;;;;;;;5055185;28;20452;-72
2023/10/30 07:37:43;;;;;;;56.10;2.37;;;;;;;;;;5055210;28;20448;-71
2023/10/30 07:40:11;;;;;;;55.87;2.40;;;;;;;;;;5047414;28;20482;-70
2023/10/30 07:42:39;;;;;;;55.20;2.07;;;;;;;;;;5055229;28;20444;-71
2023/10/30 07:45:07;;;;;;;55.97;2.30;;;;;;;;;;5054650;28;20512;-72
2023/10/30 07:47:34;;;;;;;56.10;2.17;;;;;;;;;;5054622;28;20484;-71
2023/10/30 07:50:01;;;;;;;55.63;2.03;;;;;;;;;;5054854;28;20478;-70
2023/10/30 07:52:29;;;;;;;56.07;2.30;;;;;;;;;;5054533;28;20459;-72
2023/10/30 07:54:57;;;;;;;55.90;2.20;;;;;;;;;;5054831;28;20458;-70
2023/10/30 07:57:24;;;;;;;56.00;2.23;;;;;;;;;;5054631;28;20484;-71
2023/10/30 07:59:51;;;;;;;56.00;2.70;;;;;;;;;;5054957;28;20472;-71
2023/10/30 08:02:18;;;;;;;56.37;2.37;;;;;;;;;;5054765;28;20447;-72
2023/10/30 08:04:45;;;;;;;55.67;2.10;;;;;;;;;;5054252;28;20454;-71
2023/10/30 08:07:12;;;;;;;55.67;2.10;;;;;;;;;;5054702;28;20444;-71
2023/10/30 08:09:41;;;;;;;56.10;2.30;;;;;;;;;;5054307;28;20469;-71
2023/10/30 08:12:08;;;;;;;56.40;2.77;;;;;;;;;;5054276;28;20543;-71
2023/10/30 08:14:35;;;;;;;56.17;2.40;;;;;;;;;;5054304;28;20455;-71
2023/10/30 08:17:03;;;;;;;56.00;2.50;;;;;;;;;;5054123;28;20491;-71
2023/10/30 08:19:30;;;;;;;55.90;2.27;;;;;;;;;;5054081;28;20828;-71
2023/10/30 08:21:57;;;;;;;56.20;2.10;;;;;;;;;;5054454;28;20456;-72
2023/10/30 08:24:23;;;;;;;56.00;2.20;;;;;;;;;;5053939;28;20454;-72
2023/10/30 08:26:52;;;;;;;55.77;2.00;;;;;;;;;;5054196;28;20440;-71
2023/10/30 08:29:19;;;;;;;55.67;1.90;;;;;;;;;;5054761;28;20452;-72
2023/10/30 08:31:46;;;;;;;56.40;2.50;;;;;;;;;;5054502;28;20968;-71
2023/10/30 08:34:13;;;;;;;56.10;2.27;;;;;;;;;;5054683;28;20440;-72
2023/10/30 08:36:40;;;;;;;57.57;2.50;;;;;;;;;;5054413;28;20496;-71
2023/10/30 08:39:07;;;;;;;56.13;2.50;;;;;;;;;;5054570;28;20478;-72
2023/10/30 08:41:35;;;;;;;55.67;2.10;;;;;;;;;;5053515;28;20508;-71
2023/10/30 08:44:05;;;;;;;56.30;2.80;;;;;;;;;;5054104;28;20458;-71
2023/10/30 08:46:33;;;;;;;55.47;2.37;;;;;;;;;;5053954;28;20444;-71
2023/10/30 08:49:00;;;;;;;56.00;2.23;;;;;;;;;;5053625;28;20446;-71
2023/10/30 08:51:27;;;;;;;56.50;2.50;;;;;;;;;;5053439;28;20442;-71
2023/10/30 08:53:54;;;;;;;55.87;2.20;;;;;;;;;;5053499;28;20927;-71
2023/10/30 08:56:22;;;;;;;55.90;2.70;;;;;;;;;;5053552;28;20498;-71
2023/10/30 08:58:49;;;;;;;55.57;1.90;;;;;;;;;;5053388;28;20524;-71
2023/10/30 09:01:18;;;;;;;55.97;2.40;;;;;;;;;;5053495;28;20483;-72
2023/10/30 09:03:45;;;;;;;55.90;2.20;;;;;;;;;;5053587;28;20896;-71
2023/10/30 09:06:12;;;;;;;55.87;2.27;;;;;;;;;;5053288;28;20453;-70
2023/10/30 09:08:39;;;;;;;55.90;2.30;;;;;;;;;;5053406;28;20450;-71
2023/10/30 09:11:06;;;;;;;56.20;2.50;;;;;;;;;;5052912;28;20489;-70
2023/10/30 09:13:33;;;;;;;55.70;1.90;;;;;;;;;;5052859;28;20451;-72
2023/10/30 09:16:00;;;;;;;55.80;1.90;;;;;;;;;;5052529;28;20604;-70
2023/10/30 09:18:29;;;;;;;55.90;2.20;;;;;;;;;;5053128;28;20837;-72
2023/10/30 09:20:56;;;;;;;55.70;2.10;;;;;;;;;;5052473;28;20468;-72
2023/10/30 09:23:24;;;;;;;55.70;2.00;;;;;;;;;;5053078;28;20447;-71
2023/10/30 09:25:51;;;;;;;56.00;2.30;;;;;;;;;;5052531;28;20824;-71
2023/10/30 09:28:18;;;;;;;55.87;1.90;;;;;;;;;;5052692;28;20451;-71
2023/10/30 09:30:45;;;;;;;55.87;2.40;;;;;;;;;;5052483;28;20496;-71
2023/10/30 09:33:13;;;;;;;55.77;2.10;;;;;;;;;;5052377;28;20449;-70
2023/10/30 09:35:42;;;;;;;56.10;2.67;;;;;;;;;;5052241;28;20460;-71
2023/10/30 09:38:09;;;;;;;56.17;2.20;;;;;;;;;;5052566;28;20455;-71
2023/10/30 09:40:36;;;;;;;56.00;2.40;;;;;;;;;;5052101;28;21075;-72
2023/10/30 09:43:07;;;;;;;55.97;2.30;;;;;;;;;;5052212;28;20455;-71
2023/10/30 09:45:35;;;;;;;55.97;2.30;;;;;;;;;;5052131;28;20813;-72
2023/10/30 09:48:04;;;;;;;55.97;2.20;;;;;;;;;;5052054;28;20460;-71
2023/10/30 09:50:33;;;;;;;55.83;2.00;;;;;;;;;;5052059;28;20467;-72
2023/10/30 09:53:03;;;;;;;56.17;2.57;;;;;;;;;;5052047;28;20447;-72
2023/10/30 09:55:30;;;;;;;55.90;2.00;;;;;;;;;;5052160;28;20544;-72
2023/10/30 09:57:57;;;;;;;56.00;2.00;;;;;;;;;;5051903;28;20935;-72
2023/10/30 10:00:24;;;;;;;55.83;2.00;;;;;;;;;;5051934;28;20829;-72
2023/10/30 10:02:51;;;;;;;55.63;2.03;;;;;;;;;;5052064;28;20447;-72
2023/10/30 10:05:18;;;;;;;56.00;2.00;;;;;;;;;;5051762;28;20445;-72
2023/10/30 10:07:45;;;;;;;55.90;1.93;;;;;;;;;;5051849;28;20738;-71
2023/10/30 10:10:18;;;;;;;56.00;2.20;;;;;;;;;;5051361;28;20475;-71
2023/10/30 10:12:45;;;;;;;55.77;1.93;;;;;;;;;;5051760;28;20460;-72
2023/10/30 10:15:12;;;;;;;55.77;2.10;;;;;;;;;;5051321;28;20449;-71
2023/10/30 10:17:42;;;;;;;56.03;2.17;;;;;;;;;;5051489;28;21025;-71
2023/10/30 10:20:11;;;;;;;55.83;1.93;;;;;;;;;;5051709;28;20878;-72
2023/10/30 10:22:38;;;;;;;55.97;1.87;;;;;;;;;;5051421;28;20875;-72
2023/10/30 10:25:08;;;;;;;56.30;2.00;;;;;;;;;;5051211;28;20569;-71
2023/10/30 10:27:37;;;;;;;56.00;1.90;;;;;;;;;;5051856;28;20459;-72
2023/10/30 10:30:05;;;;;;;56.20;2.20;;;;;;;;;;5051017;28;20471;-71
2023/10/30 10:32:33;;;;;;;55.47;1.97;;;;;;;;;;5051550;28;20806;-71
2023/10/30 10:35:01;;;;;;;56.40;2.00;;;;;;;;;;5050609;28;20445;-71
2023/10/30 10:37:29;;;;;;;55.77;1.90;;;;;;;;;;5050840;28;20856;-69
2023/10/30 10:39:56;;;;;;;55.87;1.83;;;;;;;;;;5050540;28;20463;-69
2023/10/30 10:42:24;;;;;;;56.20;2.30;;;;;;;;;;5050535;28;20586;-71
2023/10/30 10:44:53;;;;;;;55.87;2.10;;;;;;;;;;5050484;28;20459;-71
2023/10/30 10:47:20;;;;;;;55.97;2.10;;;;;;;;;;5050609;28;20451;-73
2023/10/30 10:49:47;;;;;;;55.83;2.03;;;;;;;;;;5050715;28;20474;-72
2023/10/30 10:52:15;;;;;;;56.10;2.00;;;;;;;;;;5050241;28;20446;-72
2023/10/30 10:54:45;;;;;;;56.10;2.10;;;;;;;;;;5050436;28;20952;-72
2023/10/30 10:57:14;;;;;;;56.07;2.00;;;;;;;;;;5051019;28;20492;-73
2023/10/30 10:59:42;;;;;;;55.97;2.27;;;;;;;;;;5050681;28;20465;-73
2023/10/30 11:02:11;;;;;;;55.87;1.90;;;;;;;;;;5049893;28;20463;-73
2023/10/30 11:04:38;;;;;;;56.60;2.00;;;;;;;;;;5050420;28;20803;-71
2023/10/30 11:07:08;;;;;;;56.00;2.00;;;;;;;;;;5050782;28;20451;-73
2023/10/30 11:09:41;;;;;;;56.00;2.10;;;;;;;;;;5051277;28;20478;-72
2023/10/30 11:12:13;;;;;;;55.97;2.10;;;;;;;;;;5050848;28;20458;-72
2023/10/30 11:14:42;;;;;;;56.27;2.30;;;;;;;;;;5050651;28;20457;-72
2023/10/30 11:17:10;;;;;;;55.90;2.00;;;;;;;;;;5050705;28;20484;-72
2023/10/30 11:19:37;;;;;;;55.80;1.80;;;;;;;;;;5050527;28;20467;-72
2023/10/30 11:22:05;;;;;;;55.87;2.10;;;;;;;;;;5050817;28;20452;-72
2023/10/30 11:24:35;;;;;;;56.20;2.37;;;;;;;;;;5050697;28;20447;-72
2023/10/30 11:27:02;;;;;;;55.77;1.90;;;;;;;;;;5050808;28;20446;-73
2023/10/30 11:29:44;;;;;;;55.97;1.83;;;;;;;;;;5050723;28;20556;-72
2023/10/30 11:32:14;;;;;;;56.00;2.00;;;;;;;;;;5050245;28;20457;-72
2023/10/30 11:34:43;;;;;;;56.30;2.00;;;;;;;;;;5050830;28;20462;-72
2023/10/30 11:37:11;;;;;;;55.97;1.87;;;;;;;;;;5050586;28;20483;-72
2023/10/30 11:39:39;;;;;;;55.80;1.90;;;;;;;;;;5050631;28;20474;-73
2023/10/30 11:42:21;;;;;;;56.20;2.00;;;;;;;;;;5050385;28;20450;-72
2023/10/30 11:44:48;;;;;;;55.93;2.10;;;;;;;;;;5050022;28;20448;-72
2023/10/30 11:47:19;;;;;;;56.17;2.00;;;;;;;;;;5050475;28;20437;-72
2023/10/30 11:49:47;;;;;;;56.30;2.10;;;;;;;;;;5050432;28;20468;-72
2023/10/30 11:52:15;;;;;;;56.03;2.00;;;;;;;;;;5050002;28;20450;-72
2023/10/30 11:54:42;;;;;;;57.37;2.13;;;;;;;;;;5050184;28;20448;-72
2023/10/30 11:57:09;;;;;;;56.00;1.90;;;;;;;;;;5050016;28;21014;-72
2023/10/30 11:59:37;;;;;;;56.00;2.20;;;;;;;;;;5050426;28;20467;-72
2023/10/30 12:02:06;;;;;;;55.80;1.90;;;;;;;;;;5050015;28;20961;-72
2023/10/30 12:04:35;;;;;;;55.63;2.03;;;;;;;;;;5050244;28;20722;-72
2023/10/30 12:07:04;;;;;;;55.87;2.00;;;;;;;;;;5050162;28;20450;-73
2023/10/30 12:09:31;;;;;;;55.83;2.07;;;;;;;;;;5050067;28;20468;-72
2023/10/30 12:11:58;;;;;;;55.90;1.90;;;;;;;;;;5050007;28;20869;-72
2023/10/30 12:14:26;;;;;;;55.93;2.00;;;;;;;;;;5050371;28;20913;-72
2023/10/30 12:16:54;;;;;;;55.83;2.10;;;;;;;;;;5053796;28;20487;-73
2023/10/30 12:19:21;;;;;;;55.90;1.87;;;;;;;;;;5053695;28;20459;-72
2023/10/30 12:21:49;;;;;;;56.00;1.90;;;;;;;;;;5053794;28;20447;-72
2023/10/30 12:24:16;;;;;;;55.53;1.90;;;;;;;;;;5053489;28;20451;-72
2023/10/30 12:26:44;;;;;;;55.67;1.80;;;;;;;;;;5053774;28;20451;-72
2023/10/30 12:29:11;;;;;;;55.77;2.07;;;;;;;;;;5053990;28;20448;-72
2023/10/30 12:31:38;;;;;;;55.77;2.10;;;;;;;;;;5053729;28;20441;-71
2023/10/30 12:34:12;;;;;;;55.87;2.07;;;;;;;;;;5053538;28;20449;-72
2023/10/30 12:36:39;;;;;;;56.00;1.90;;;;;;;;;;5053357;28;20584;-72
2023/10/30 12:39:18;;;;;;;56.50;2.30;;;;;;;;;;5053457;28;20449;-72
2023/10/30 12:41:47;;;;;;;55.90;1.90;;;;;;;;;;5053844;28;20448;-72
2023/10/30 12:44:16;;;;;;;56.07;2.10;;;;;;;;;;5053293;28;20552;-71
2023/10/30 12:46:43;;;;;;;56.23;2.00;;;;;;;;;;5053561;28;20489;-72
2023/10/30 12:49:10;;;;;;;55.73;2.00;;;;;;;;;;5052951;28;20453;-72
2023/10/30 12:51:38;;;;;;;56.00;2.00;;;;;;;;;;5053266;28;20465;-72
2023/10/30 12:54:05;;;;;;;56.10;2.30;;;;;;;;;;5053233;28;20450;-71
2023/10/30 12:56:33;;;;;;;55.87;2.00;;;;;;;;;;5053017;28;20483;-72
2023/10/30 12:59:00;;;;;;;56.13;2.03;;;;;;;;;;5052889;28;20491;-72
2023/10/30 13:01:28;;;;;;;56.87;2.03;;;;;;;;;;5052825;28;20861;-72
2023/10/30 13:03:55;;;;;;;55.97;1.90;;;;;;;;;;5053018;28;20448;-73
2023/10/30 13:06:22;;;;;;;56.00;2.33;;;;;;;;;;5052878;28;20448;-72
2023/10/30 13:08:49;;;;;;;55.77;2.10;;;;;;;;;;5052962;28;20448;-72
2023/10/30 13:11:16;;;;;;;56.20;2.00;;;;;;;;;;5052914;28;20469;-73
2023/10/30 13:13:44;;;;;;;55.80;2.00;;;;;;;;;;5053320;28;20458;-72
2023/10/30 13:16:12;;;;;;;55.83;2.10;;;;;;;;;;5052555;28;20941;-73
2023/10/30 13:18:41;;;;;;;55.57;2.00;;;;;;;;;;5052801;28;20844;-72
2023/10/30 13:21:08;;;;;;;55.63;2.10;;;;;;;;;;5052794;28;20479;-72
2023/10/30 13:23:35;;;;;;;55.57;1.93;;;;;;;;;;5052854;28;20458;-72
2023/10/30 13:26:03;;;;;;;55.90;2.00;;;;;;;;;;5051949;28;20529;-72
2023/10/30 13:28:30;;;;;;;55.63;2.03;;;;;;;;;;5052860;28;20453;-73
2023/10/30 13:30:59;;;;;;;55.93;2.10;;;;;;;;;;5052291;28;20470;-71
2023/10/30 13:33:26;;;;;;;55.90;2.10;;;;;;;;;;5052458;28;20459;-72
2023/10/30 13:35:53;;;;;;;55.77;1.83;;;;;;;;;;5052626;28;20449;-72
2023/10/30 13:38:21;;;;;;;56.97;2.00;;;;;;;;;;5052779;28;20498;-72
2023/10/30 13:40:51;;;;;;;55.87;2.03;;;;;;;;;;5052272;28;20481;-72
2023/10/30 13:43:18;;;;;;;55.60;1.90;;;;;;;;;;5052849;28;20448;-73
2023/10/30 13:45:45;;;;;;;55.70;1.80;;;;;;;;;;5052586;28;20445;-72
2023/10/30 13:48:13;;;;;;;56.20;2.10;;;;;;;;;;5052278;28;20445;-72
2023/10/30 13:50:40;;;;;;;55.77;2.00;;;;;;;;;;5052060;28;20471;-71
2023/10/30 13:53:07;;;;;;;55.90;1.80;;;;;;;;;;5051970;28;20975;-72
2023/10/30 13:55:34;;;;;;;57.77;2.83;;;;;;;;;;5051895;28;20496;-71
2023/10/30 13:58:02;;;;;;;55.87;1.80;;;;;;;;;;5051990;28;20581;-72
2023/10/30 14:00:30;;;;;;;55.63;1.90;;;;;;;;;;5051781;28;21045;-71
2023/10/30 14:02:57;;;;;;;55.77;2.10;;;;;;;;;;5052174;28;20450;-72
2023/10/30 14:05:28;;;;;;;55.90;2.10;;;;;;;;;;5051989;28;20436;-72
2023/10/30 14:07:55;;;;;;;56.40;2.27;;;;;;;;;;5052084;28;20440;-71
2023/10/30 14:10:22;;;;;;;55.97;1.87;;;;;;;;;;5051490;28;20492;-71
2023/10/30 14:12:49;;;;;;;55.80;2.10;;;;;;;;;;5051983;28;20463;-72
2023/10/30 14:15:16;;;;;;;56.00;2.07;;;;;;;;;;5051906;28;20470;-71
2023/10/30 14:17:43;;;;;;;55.97;2.10;;;;;;;;;;5051753;28;20488;-72
2023/10/30 14:20:11;;;;;;;55.77;2.00;;;;;;;;;;5051874;28;20470;-70
2023/10/30 14:22:40;;;;;;;55.90;2.10;;;;;;;;;;5051665;28;20543;-70
2023/10/30 14:25:07;;;;;;;56.07;2.17;;;;;;;;;;5051205;28;20455;-71
2023/10/30 14:27:34;;;;;;;55.90;2.10;;;;;;;;;;5051679;28;20443;-71
2023/10/30 14:30:02;;;;;;;56.07;2.50;;;;;;;;;;5051651;28;20480;-72
2023/10/30 14:32:29;;;;;;;55.73;2.00;;;;;;;;;;5051463;28;20491;-72